createdAt,value
2023-01-27T00:01:20.659Z,83.94
2023-01-27T00:03:48.716Z,83.70
2023-01-27T00:06:16.578Z,83.48
2023-01-27T00:08:44.801Z,84.87
2023-01-27T00:11:29.925Z,85.04
2023-01-27T00:13:58.144Z,84.79
2023-01-27T00:16:27.533Z,85.48
2023-01-27T00:18:55.393Z,85.71
2023-01-27T00:21:40.900Z,86.53
2023-01-27T00:24:28.369Z,87.04
2023-01-27T00:26:56.263Z,87.35
2023-01-27T00:29:24.144Z,87.82
2023-01-27T00:32:11.055Z,87.51
2023-01-27T00:34:39.522Z,88.44
2023-01-27T00:37:07.354Z,88.96
2023-01-27T00:39:35.691Z,88.07
2023-01-27T00:42:03.529Z,87.57
2023-01-27T00:44:31.478Z,88.29
2023-01-27T00:47:01.059Z,88.19
2023-01-27T00:49:29.104Z,88.01
2023-01-27T00:51:56.928Z,88.33
2023-01-27T00:54:24.914Z,88.08
2023-01-27T00:56:52.787Z,87.66
2023-01-27T00:59:20.786Z,88.63
2023-01-27T01:01:48.823Z,88.08
2023-01-27T01:04:18.183Z,86.97
2023-01-27T01:06:45.989Z,87.22
2023-01-27T01:09:13.852Z,87.45
2023-01-27T01:11:41.720Z,88.08
2023-01-27T01:14:09.582Z,87.79
2023-01-27T01:16:37.519Z,86.83
2023-01-27T01:19:05.445Z,87.66
2023-01-27T01:21:34.729Z,87.58
2023-01-27T01:24:02.730Z,86.99
2023-01-27T01:26:30.684Z,86.90
2023-01-27T01:28:58.611Z,87.30
2023-01-27T01:31:26.554Z,86.58
2023-01-27T01:33:54.392Z,86.41
2023-01-27T01:36:22.688Z,86.69
2023-01-27T01:38:56.637Z,86.38
2023-01-27T01:41:25.114Z,87.27
2023-01-27T01:43:53.794Z,87.59
2023-01-27T01:46:23.323Z,87.40
2023-01-27T01:48:54.670Z,87.49
2023-01-27T01:51:27.130Z,88.46
2023-01-27T01:54:01.700Z,88.48
2023-01-27T01:56:35.688Z,88.97
2023-01-27T01:59:07.977Z,89.25
2023-01-27T02:01:36.022Z,88.66
2023-01-27T02:04:09.377Z,89.06
2023-01-27T02:06:43.713Z,89.49
2023-01-27T02:09:14.266Z,89.22
2023-01-27T02:11:42.604Z,89.42
2023-01-27T02:14:13.347Z,89.65
2023-01-27T02:16:42.255Z,89.79
2023-01-27T02:19:17.710Z,90.21
2023-01-27T02:21:45.919Z,89.18
2023-01-27T02:24:15.758Z,88.60
2023-01-27T02:26:46.003Z,88.85
2023-01-27T02:29:15.482Z,89.74
2023-01-27T02:31:43.577Z,88.61
2023-01-27T02:34:16.803Z,88.43
2023-01-27T02:36:48.975Z,88.26
2023-01-27T02:39:20.030Z,88.86
2023-01-27T02:41:52.987Z,89.26
2023-01-27T02:44:21.301Z,89.06
2023-01-27T02:46:49.234Z,89.91
2023-01-27T02:49:17.471Z,88.80
2023-01-27T02:51:48.929Z,90.17
2023-01-27T02:54:16.863Z,90.76
2023-01-27T02:56:44.833Z,90.97
2023-01-27T02:59:14.525Z,89.94
2023-01-27T03:01:42.471Z,90.66
2023-01-27T03:04:12.126Z,90.95
2023-01-27T03:06:40.204Z,90.75
2023-01-27T03:09:08.463Z,90.93
2023-01-27T03:12:05.131Z,90.98
2023-01-27T03:14:51.977Z,91.64
2023-01-27T03:17:37.680Z,91.25
2023-01-27T03:20:06.022Z,90.60
2023-01-27T03:22:33.875Z,90.95
2023-01-27T03:25:01.823Z,90.73
2023-01-27T03:27:29.642Z,90.83
2023-01-27T03:29:59.036Z,91.67
2023-01-27T03:32:31.015Z,91.78
2023-01-27T03:34:59.142Z,92.05
2023-01-27T03:37:45.332Z,92.16
2023-01-27T03:40:31.977Z,91.12
2023-01-27T03:43:18.234Z,91.48
2023-01-27T03:46:07.552Z,90.30
2023-01-27T03:48:35.568Z,91.21
2023-01-27T03:51:05.777Z,90.62
2023-01-27T03:53:34.024Z,90.33
2023-01-27T03:56:02.203Z,90.36
2023-01-27T03:58:32.254Z,89.64
2023-01-27T04:01:03.422Z,89.06
2023-01-27T04:03:50.952Z,90.02
2023-01-27T04:06:38.040Z,89.78
2023-01-27T04:09:07.040Z,89.46
2023-01-27T04:11:54.052Z,90.19
2023-01-27T04:14:23.360Z,90.52
2023-01-27T04:16:56.957Z,91.01
2023-01-27T04:19:25.875Z,90.76
2023-01-27T04:21:54.090Z,90.09
2023-01-27T04:24:25.456Z,89.25
2023-01-27T04:26:56.472Z,89.45
2023-01-27T04:29:26.245Z,89.70
2023-01-27T04:31:57.893Z,89.86
2023-01-27T04:34:26.453Z,90.05
2023-01-27T04:36:54.930Z,90.34
2023-01-27T04:39:22.819Z,90.18
2023-01-27T04:41:52.846Z,89.31
2023-01-27T04:44:21.259Z,90.51
2023-01-27T04:46:49.881Z,89.99
2023-01-27T04:49:19.840Z,90.00
2023-01-27T04:51:48.044Z,90.94
2023-01-27T04:54:15.966Z,91.21
2023-01-27T04:56:55.086Z,90.42
2023-01-27T04:59:23.117Z,89.87
2023-01-27T05:01:52.148Z,89.92
2023-01-27T05:04:21.547Z,89.63
2023-01-27T05:06:49.867Z,89.32
2023-01-27T05:09:17.826Z,89.04
2023-01-27T05:11:45.759Z,89.28
2023-01-27T05:14:14.797Z,88.13
2023-01-27T05:16:43.008Z,88.30
2023-01-27T05:19:10.970Z,88.12
2023-01-27T05:21:40.352Z,88.82
2023-01-27T05:24:08.517Z,88.94
2023-01-27T05:26:36.668Z,87.92
2023-01-27T05:29:04.983Z,88.23
2023-01-27T05:31:33.520Z,88.79
2023-01-27T05:34:03.232Z,88.28
2023-01-27T05:36:31.831Z,88.28
2023-01-27T05:39:01.303Z,87.54
2023-01-27T05:41:31.895Z,88.24
2023-01-27T05:44:00.176Z,87.30
2023-01-27T05:46:30.405Z,87.89
2023-01-27T05:49:03.029Z,87.93
2023-01-27T05:51:32.812Z,86.24
2023-01-27T05:54:02.875Z,86.53
2023-01-27T05:56:31.007Z,85.07
2023-01-27T05:58:59.834Z,85.23
2023-01-27T06:01:30.035Z,85.54
2023-01-27T06:03:59.280Z,85.73
2023-01-27T06:06:28.721Z,85.94
2023-01-27T06:08:56.643Z,85.16
2023-01-27T06:11:26.762Z,85.15
2023-01-27T06:13:55.373Z,84.97
2023-01-27T06:16:24.854Z,85.79
2023-01-27T06:18:52.935Z,85.84
2023-01-27T06:21:22.189Z,85.38
2023-01-27T06:23:50.760Z,86.14
2023-01-27T06:26:20.920Z,87.03
2023-01-27T06:28:50.783Z,85.99
2023-01-27T06:31:21.612Z,86.21
2023-01-27T06:33:49.814Z,86.36
2023-01-27T06:36:20.279Z,86.26
2023-01-27T06:38:48.688Z,86.08
2023-01-27T06:41:16.837Z,86.74
2023-01-27T06:43:44.959Z,86.33
2023-01-27T06:46:15.149Z,85.94
2023-01-27T06:48:43.089Z,86.16
2023-01-27T06:51:11.430Z,86.04
2023-01-27T06:53:39.445Z,86.16
2023-01-27T06:56:08.126Z,86.28
2023-01-27T06:58:36.308Z,85.63
2023-01-27T07:01:06.096Z,85.97
2023-01-27T07:06:02.401Z,85.25
2023-01-27T07:08:30.240Z,85.73
2023-01-27T07:10:58.295Z,85.53
2023-01-27T07:13:26.167Z,85.05
2023-01-27T07:15:57.736Z,84.91
2023-01-27T07:18:25.594Z,86.01
2023-01-27T07:20:54.777Z,86.67
2023-01-27T07:23:22.650Z,86.90
2023-01-27T07:25:50.550Z,87.22
2023-01-27T07:28:18.387Z,87.67
2023-01-27T07:30:46.422Z,87.41
2023-01-27T07:33:15.872Z,87.61
2023-01-27T07:35:44.761Z,86.75
2023-01-27T07:38:14.014Z,85.60
2023-01-27T07:40:41.983Z,86.41
2023-01-27T07:43:11.509Z,86.39
2023-01-27T07:45:39.528Z,86.09
2023-01-27T07:48:09.722Z,85.67
2023-01-27T07:50:37.677Z,85.53
2023-01-27T07:53:06.690Z,84.47
2023-01-27T07:55:35.997Z,84.46
2023-01-27T07:58:04.196Z,84.58
2023-01-27T08:00:33.010Z,84.30
2023-01-27T08:03:02.698Z,84.31
2023-01-27T08:05:33.994Z,84.79
2023-01-27T08:08:05.985Z,83.33
2023-01-27T08:10:37.720Z,83.54
2023-01-27T08:13:06.988Z,84.16
2023-01-27T08:15:36.024Z,82.94
2023-01-27T08:18:03.963Z,82.13
2023-01-27T08:20:32.584Z,83.33
2023-01-27T08:23:06.053Z,82.91
2023-01-27T08:25:35.351Z,82.91
2023-01-27T08:28:04.572Z,83.27
2023-01-27T08:30:32.438Z,84.03
2023-01-27T08:33:02.656Z,83.95
2023-01-27T08:35:30.520Z,84.83
2023-01-27T08:37:58.370Z,85.00
2023-01-27T08:40:26.414Z,85.43
2023-01-27T08:42:55.866Z,84.90
2023-01-27T08:45:26.747Z,84.45
2023-01-27T08:47:54.887Z,85.40
2023-01-27T08:50:22.797Z,84.59
2023-01-27T08:52:52.267Z,85.41
2023-01-27T08:55:20.121Z,85.88
2023-01-27T08:57:47.972Z,84.67
2023-01-27T09:00:18.165Z,85.16
2023-01-27T09:02:46.860Z,84.46
2023-01-27T09:05:15.094Z,84.81
2023-01-27T09:07:43.117Z,85.19
2023-01-27T09:10:19.947Z,85.35
2023-01-27T09:12:48.248Z,85.72
2023-01-27T09:15:17.766Z,85.13
2023-01-27T09:17:45.655Z,84.47
2023-01-27T09:20:14.414Z,85.57
2023-01-27T09:22:43.032Z,84.50
2023-01-27T09:25:14.785Z,84.30
2023-01-27T09:27:42.953Z,84.44
2023-01-27T09:30:13.285Z,84.20
2023-01-27T09:32:43.590Z,83.79
2023-01-27T09:35:11.988Z,83.40
2023-01-27T09:37:45.757Z,83.07
2023-01-27T09:40:22.957Z,83.80
2023-01-27T09:43:04.088Z,82.48
2023-01-27T09:45:44.816Z,83.17
2023-01-27T09:48:39.980Z,82.04
2023-01-27T09:51:15.864Z,81.47
2023-01-27T09:54:08.134Z,81.89
2023-01-27T09:56:54.580Z,82.04
2023-01-27T09:59:47.460Z,81.04
2023-01-27T10:02:32.124Z,81.05
2023-01-27T10:05:40.926Z,80.33
2023-01-27T10:08:32.639Z,79.78
2023-01-27T10:11:14.387Z,79.60
2023-01-27T10:13:52.279Z,78.13
2023-01-27T10:16:36.416Z,76.24
2023-01-27T10:19:20.741Z,75.04
2023-01-27T10:22:00.298Z,73.82
2023-01-27T10:24:39.689Z,73.73
2023-01-27T10:27:16.402Z,73.67
2023-01-27T10:29:46.694Z,72.02
2023-01-27T10:32:26.857Z,72.28
2023-01-27T10:35:04.325Z,70.94
2023-01-27T10:37:43.337Z,70.24
2023-01-27T10:40:19.281Z,71.24
2023-01-27T10:42:56.002Z,71.52
2023-01-27T10:45:29.774Z,71.59
2023-01-27T10:48:17.492Z,71.37
2023-01-27T10:50:50.015Z,71.12
2023-01-27T10:53:26.913Z,71.94
2023-01-27T10:56:01.830Z,70.41
2023-01-27T10:58:43.735Z,69.63
2023-01-27T11:01:21.268Z,70.28
2023-01-27T11:03:58.232Z,69.62
2023-01-27T11:06:30.679Z,70.35
2023-01-27T11:09:09.276Z,69.50
2023-01-27T11:11:49.334Z,69.38
2023-01-27T11:14:25.204Z,68.88
2023-01-27T11:16:55.181Z,69.53
2023-01-27T11:19:36.268Z,69.08
2023-01-27T11:22:08.525Z,70.28
2023-01-27T11:24:45.267Z,69.21
2023-01-27T11:27:20.875Z,69.69
2023-01-27T11:29:55.093Z,69.38
2023-01-27T11:32:35.692Z,69.15
2023-01-27T11:35:05.654Z,70.38
2023-01-27T11:37:37.303Z,70.15
2023-01-27T11:40:17.135Z,69.51
2023-01-27T11:42:45.725Z,69.84
2023-01-27T11:45:19.198Z,70.51
2023-01-27T11:47:50.289Z,69.92
2023-01-27T11:50:20.928Z,69.93
2023-01-27T11:52:51.977Z,69.43
2023-01-27T11:55:25.616Z,69.02
2023-01-27T11:57:59.041Z,67.52
2023-01-27T12:00:31.539Z,68.07
2023-01-27T12:03:06.537Z,68.52
2023-01-27T12:05:39.236Z,69.49
2023-01-27T12:08:07.272Z,69.12
2023-01-27T12:10:40.319Z,68.67
2023-01-27T12:13:11.055Z,67.25
2023-01-27T12:15:48.948Z,68.68
2023-01-27T12:18:18.138Z,68.90
2023-01-27T12:20:48.311Z,69.61
2023-01-27T12:23:22.844Z,69.40
2023-01-27T12:25:55.868Z,68.35
2023-01-27T12:28:31.439Z,67.10
2023-01-27T12:31:06.965Z,67.52
2023-01-27T12:33:37.492Z,66.22
2023-01-27T12:36:13.763Z,65.97
2023-01-27T12:38:47.376Z,65.36
2023-01-27T12:41:24.536Z,64.24
2023-01-27T12:43:55.694Z,64.32
2023-01-27T12:46:25.387Z,64.86
2023-01-27T12:48:55.569Z,64.93
2023-01-27T12:51:25.009Z,65.15
2023-01-27T12:54:13.091Z,65.95
2023-01-27T12:56:43.939Z,65.44
2023-01-27T12:59:15.625Z,66.25
2023-01-27T13:01:44.983Z,66.32
2023-01-27T13:04:18.237Z,64.36
2023-01-27T13:06:49.037Z,64.69
2023-01-27T13:09:27.596Z,64.36
2023-01-27T13:11:59.160Z,65.00
2023-01-27T13:14:31.186Z,64.57
2023-01-27T13:16:59.741Z,65.25
2023-01-27T13:19:44.196Z,63.38
2023-01-27T13:22:20.031Z,63.89
2023-01-27T13:24:51.889Z,63.81
2023-01-27T13:27:23.619Z,63.43
2023-01-27T13:29:58.050Z,63.23
2023-01-27T13:32:29.644Z,63.56
2023-01-27T13:35:04.496Z,61.72
2023-01-27T13:37:36.550Z,62.86
2023-01-27T13:40:10.493Z,62.00
2023-01-27T13:42:45.475Z,61.45
2023-01-27T13:45:17.845Z,60.96
2023-01-27T13:47:52.121Z,60.98
2023-01-27T13:50:29.531Z,61.00
2023-01-27T13:53:00.383Z,61.11
2023-01-27T13:55:46.843Z,60.06
2023-01-27T13:58:23.803Z,60.25
2023-01-27T14:00:59.110Z,60.38
2023-01-27T14:03:59.023Z,58.80
2023-01-27T14:06:41.782Z,60.40
2023-01-27T14:09:23.079Z,59.56
2023-01-27T14:11:56.475Z,59.17
2023-01-27T14:14:58.704Z,59.05
2023-01-27T14:17:38.318Z,59.07
2023-01-27T14:20:30.892Z,59.36
2023-01-27T14:23:17.975Z,59.11
2023-01-27T14:25:54.422Z,59.71
2023-01-27T14:28:32.173Z,59.71
2023-01-27T14:31:06.113Z,58.95
2023-01-27T14:33:50.600Z,59.82
2023-01-27T14:36:22.594Z,60.40
2023-01-27T14:39:00.610Z,60.45
2023-01-27T14:41:38.167Z,58.90
2023-01-27T14:44:18.035Z,60.13
2023-01-27T14:46:57.310Z,60.09
2023-01-27T14:49:42.041Z,59.69
2023-01-27T14:52:23.341Z,59.97
2023-01-27T14:55:04.669Z,60.06
2023-01-27T14:57:42.982Z,60.41
2023-01-27T15:00:26.678Z,60.24
2023-01-27T15:03:15.651Z,60.88
2023-01-27T15:05:53.762Z,60.46
2023-01-27T15:08:31.684Z,60.87
2023-01-27T15:11:14.454Z,61.02
2023-01-27T15:14:04.925Z,60.36
2023-01-27T15:16:48.635Z,60.28
2023-01-27T15:19:45.722Z,60.35
2023-01-27T15:22:38.319Z,60.55
2023-01-27T15:25:30.945Z,60.43
2023-01-27T15:27:59.679Z,60.05
2023-01-27T15:30:30.117Z,60.17
2023-01-27T15:32:58.450Z,60.70
2023-01-27T15:35:41.370Z,60.78
2023-01-27T15:38:31.670Z,60.99
2023-01-27T15:41:07.790Z,61.43
2023-01-27T15:43:40.009Z,61.42
2023-01-27T15:46:32.313Z,60.95
2023-01-27T15:49:01.920Z,61.87
2023-01-27T15:51:36.946Z,61.60
2023-01-27T15:54:06.751Z,60.60
2023-01-27T15:56:47.821Z,61.28
2023-01-27T15:59:19.245Z,61.27
2023-01-27T16:01:49.937Z,61.74
2023-01-27T16:04:23.300Z,61.08
2023-01-27T16:07:01.990Z,60.60
2023-01-27T16:09:36.520Z,61.98
2023-01-27T16:12:08.121Z,61.34
2023-01-27T16:14:44.973Z,61.10
2023-01-27T16:17:21.517Z,60.61
2023-01-27T16:19:58.514Z,60.25
2023-01-27T16:22:29.692Z,60.07
2023-01-27T16:25:04.926Z,61.26
2023-01-27T16:27:41.196Z,60.21
2023-01-27T16:30:17.098Z,60.15
2023-01-27T16:32:59.864Z,59.76
2023-01-27T16:35:27.956Z,60.07
2023-01-27T16:38:08.129Z,60.09
2023-01-27T16:40:38.962Z,60.55
2023-01-27T16:43:16.172Z,59.61
2023-01-27T16:45:47.539Z,60.68
2023-01-27T16:48:30.525Z,59.73
2023-01-27T16:51:11.190Z,60.55
2023-01-27T16:53:45.964Z,60.40
2023-01-27T16:56:21.922Z,59.62
2023-01-27T16:58:51.207Z,59.96
2023-01-27T17:01:23.825Z,59.81
2023-01-27T17:03:56.910Z,59.31
2023-01-27T17:06:28.673Z,59.46
2023-01-27T17:08:58.061Z,59.50
2023-01-27T17:11:30.142Z,59.59
2023-01-27T17:14:01.302Z,59.62
2023-01-27T17:16:34.283Z,59.05
2023-01-27T17:19:11.809Z,59.21
2023-01-27T17:21:43.238Z,59.91
2023-01-27T17:24:25.086Z,59.70
2023-01-27T17:27:01.020Z,60.25
2023-01-27T17:29:37.141Z,60.37
2023-01-27T17:32:18.237Z,60.40
2023-01-27T17:34:46.307Z,60.59
2023-01-27T17:37:17.401Z,60.72
2023-01-27T17:39:55.375Z,60.32
2023-01-27T17:42:26.351Z,60.56
2023-01-27T17:44:54.174Z,61.36
2023-01-27T17:47:23.552Z,59.97
2023-01-27T17:49:52.145Z,60.39
2023-01-27T17:52:22.759Z,60.07
2023-01-27T17:54:52.822Z,59.75
2023-01-27T17:57:23.412Z,59.89
2023-01-27T18:00:00.740Z,59.30
2023-01-27T18:02:31.906Z,59.74
2023-01-27T18:05:02.232Z,60.29
2023-01-27T18:07:30.722Z,59.58
2023-01-27T18:10:00.167Z,59.83
2023-01-27T18:12:32.743Z,59.58
2023-01-27T18:15:00.706Z,60.04
2023-01-27T18:17:31.999Z,60.27
2023-01-27T18:19:59.938Z,59.59
2023-01-27T18:22:27.852Z,59.87
2023-01-27T18:25:00.254Z,60.37
2023-01-27T18:27:32.948Z,60.32
2023-01-27T18:30:04.632Z,60.79
2023-01-27T18:32:41.520Z,59.52
2023-01-27T18:35:27.389Z,60.36
2023-01-27T18:37:58.599Z,60.23
2023-01-27T18:40:30.122Z,60.14
2023-01-27T18:42:59.870Z,60.38
2023-01-27T18:45:28.892Z,60.80
2023-01-27T18:47:57.712Z,60.37
2023-01-27T18:50:27.048Z,60.01
2023-01-27T18:52:55.545Z,61.13
2023-01-27T18:55:24.986Z,60.64
2023-01-27T18:57:54.429Z,60.73
2023-01-27T19:00:25.551Z,60.40
2023-01-27T19:02:57.142Z,60.86
2023-01-27T19:05:27.489Z,60.79
2023-01-27T19:07:55.312Z,61.05
2023-01-27T19:10:25.871Z,60.72
2023-01-27T19:12:53.921Z,61.17
2023-01-27T19:15:24.699Z,61.29
2023-01-27T19:17:54.969Z,61.16
2023-01-27T19:20:24.647Z,60.66
2023-01-27T19:22:53.931Z,60.62
2023-01-27T19:25:23.208Z,60.93
2023-01-27T19:27:53.968Z,60.58
2023-01-27T19:30:28.562Z,59.62
2023-01-27T19:32:57.382Z,61.06
2023-01-27T19:35:27.495Z,59.56
2023-01-27T19:37:57.269Z,59.02
2023-01-27T19:40:27.020Z,59.37
2023-01-27T19:42:55.451Z,58.61
2023-01-27T19:45:23.928Z,58.11
2023-01-27T19:47:53.352Z,57.84
2023-01-27T19:50:23.788Z,58.47
2023-01-27T19:52:51.709Z,58.71
2023-01-27T19:55:20.857Z,58.97
2023-01-27T19:57:50.097Z,58.33
2023-01-27T20:00:27.954Z,57.33
2023-01-27T20:02:58.023Z,58.12
2023-01-27T20:05:27.425Z,58.27
2023-01-27T20:07:55.908Z,57.52
2023-01-27T20:10:26.809Z,57.59
2023-01-27T20:12:56.624Z,57.39
2023-01-27T20:15:25.859Z,57.01
2023-01-27T20:17:54.463Z,58.01
2023-01-27T20:20:24.868Z,58.32
2023-01-27T20:22:53.355Z,57.85
2023-01-27T20:25:23.070Z,57.82
2023-01-27T20:27:52.504Z,58.00
2023-01-27T20:30:21.928Z,57.26
2023-01-27T20:32:50.194Z,58.50
2023-01-27T20:35:19.896Z,57.23
2023-01-27T20:37:49.905Z,57.68
2023-01-27T20:40:19.690Z,58.40
2023-01-27T20:42:47.918Z,57.98
2023-01-27T20:45:16.368Z,57.81
2023-01-27T20:47:44.449Z,58.18
2023-01-27T20:50:13.249Z,58.04
2023-01-27T20:52:41.378Z,58.37
2023-01-27T20:55:11.946Z,58.84
2023-01-27T20:57:40.137Z,58.50
2023-01-27T21:00:09.618Z,57.57
2023-01-27T21:02:37.511Z,58.47
2023-01-27T21:05:05.834Z,58.20
2023-01-27T21:07:33.849Z,57.92
2023-01-27T21:10:01.642Z,57.88
2023-01-27T21:12:30.861Z,58.47
2023-01-27T21:14:59.033Z,58.68
2023-01-27T21:17:26.861Z,58.16
2023-01-27T21:19:54.661Z,59.01
2023-01-27T21:22:22.499Z,58.52
2023-01-27T21:24:50.322Z,58.80
2023-01-27T21:27:18.159Z,58.61
2023-01-27T21:29:47.395Z,58.51
2023-01-27T21:32:15.229Z,58.56
2023-01-27T21:34:43.139Z,58.12
2023-01-27T21:37:11.144Z,58.44
2023-01-27T21:39:38.963Z,58.31
2023-01-27T21:42:24.074Z,57.56
2023-01-27T21:45:10.702Z,57.02
2023-01-27T21:47:38.714Z,57.22
2023-01-27T21:50:06.826Z,57.92
2023-01-27T21:52:36.522Z,57.57
2023-01-27T21:55:06.994Z,57.25
2023-01-27T21:57:35.526Z,57.34
2023-01-27T22:00:06.398Z,56.99
2023-01-27T22:02:34.282Z,57.18
2023-01-27T22:05:02.178Z,57.29
2023-01-27T22:07:34.238Z,56.98
2023-01-27T22:10:02.083Z,56.88
2023-01-27T22:12:30.131Z,56.93
2023-01-27T22:14:58.110Z,56.87
2023-01-27T22:17:27.324Z,56.88
2023-01-27T22:19:55.146Z,57.37
2023-01-27T22:22:22.990Z,56.06
2023-01-27T22:24:50.830Z,56.79
2023-01-27T22:27:18.775Z,56.67
2023-01-27T22:29:46.788Z,56.03
2023-01-27T22:32:14.682Z,56.16
2023-01-27T22:34:44.490Z,55.97
2023-01-27T22:37:12.357Z,57.18
2023-01-27T22:39:42.180Z,56.18
2023-01-27T22:42:10.177Z,55.70
2023-01-27T22:44:38.121Z,56.16
2023-01-27T22:47:06.018Z,55.88
2023-01-27T22:49:33.843Z,55.64
2023-01-27T22:52:03.250Z,55.79
2023-01-27T22:54:31.073Z,55.84
2023-01-27T22:57:00.977Z,55.88
2023-01-27T22:59:29.095Z,55.67
2023-01-27T23:01:56.892Z,55.78
2023-01-27T23:04:24.741Z,55.38
2023-01-27T23:06:52.764Z,55.76
2023-01-27T23:09:21.909Z,55.10
2023-01-27T23:11:49.712Z,54.77
2023-01-27T23:14:17.779Z,55.47
2023-01-27T23:16:45.686Z,55.30
2023-01-27T23:19:13.500Z,54.34
2023-01-27T23:21:41.414Z,54.15
2023-01-27T23:24:09.272Z,55.16
2023-01-27T23:26:38.489Z,55.90
2023-01-27T23:29:19.340Z,55.83
2023-01-27T23:31:52.216Z,55.70
2023-01-27T23:34:20.456Z,55.01
2023-01-27T23:36:48.965Z,54.48
2023-01-27T23:39:17.471Z,54.90
2023-01-27T23:41:46.779Z,55.04
2023-01-27T23:44:14.634Z,54.56
2023-01-27T23:46:43.302Z,54.54
2023-01-27T23:49:12.498Z,54.26
2023-01-27T23:51:40.366Z,54.07
2023-01-27T23:54:08.291Z,53.72
2023-01-27T23:56:36.690Z,53.66
2023-01-27T23:59:06.032Z,53.68
